Airport Name : Tyndall AFB

Other Name : Tyndall AFB

ICAO : KPAM

IATA : PAM

FAA : PAM

Latitude : 30.069964

Longitude : -85.576494

Country : United States

Local Date and Time : 08 Mar 2021 19:22

 

TAF (Terminal Aerodrome Forecast)

TAF KPAM 082000Z 0820/1002 19006KT 9999 SKC QNH3046INS BECMG 0904/0905 08006KT 9999 SKC QNH3044INS BECMG 0918/0919 13006KT 9999 FEW250 QNH3040INS TX19/0820Z TN12/0912Z LAST NO AMDS AFT 0823 NEXT 0912

 

METAR (METeorological Aerodrome Report)

KPAM 090056Z AUTO 20005KT 10SM CLR 13/05 A3049 RMK AO2 SLP328 T01340048

KPAM 082356Z AUTO 20006KT 10SM CLR 14/05 A3048 RMK AO2 SLP325 T01430048 10188 20143 53004

KPAM 082256Z AUTO 19007KT 10SM CLR 16/04 A3047 RMK AO2 SLP321 T01610042

KPAM 082156Z AUTO 22009KT 10SM CLR 17/05 A3046 RMK AO2 SLP318 T01690049

To Charter a Jet Click here.